createdAt,value
2017-12-16T00:00:53.017Z,3.86
2017-12-16T00:01:53.045Z,3.86
2017-12-16T00:02:53.012Z,3.84
2017-12-16T00:04:07.732Z,3.83
2017-12-16T00:04:53.071Z,3.8
2017-12-16T00:06:07.772Z,3.8
2017-12-16T00:06:52.850Z,3.79
2017-12-16T00:08:07.773Z,3.84
2017-12-16T00:08:53.138Z,3.79
2017-12-16T00:09:53.155Z,3.8
2017-12-16T00:10:53.182Z,3.9
2017-12-16T00:11:53.184Z,3.86
2017-12-16T00:12:53.206Z,3.87
2017-12-16T00:13:53.204Z,3.79
2017-12-16T00:14:53.241Z,3.79
2017-12-16T00:15:52.993Z,3.72
2017-12-16T00:16:53.253Z,3.73
2017-12-16T00:17:53.274Z,3.83
2017-12-16T00:18:53.261Z,3.68
2017-12-16T00:20:07.979Z,3.62
2017-12-16T00:20:53.316Z,3.73
2017-12-16T00:21:53.091Z,3.7
2017-12-16T00:22:53.349Z,3.83
2017-12-16T00:23:53.353Z,3.73
2017-12-16T00:24:53.349Z,3.78
2017-12-16T00:26:08.050Z,3.8
2017-12-16T00:26:53.433Z,3.79
2017-12-16T00:27:53.405Z,3.91
2017-12-16T00:28:53.419Z,3.93
2017-12-16T00:29:53.197Z,3.87
2017-12-16T00:31:08.121Z,3.94
2017-12-16T00:31:53.472Z,3.93
2017-12-16T00:33:53.508Z,3.86
2017-12-16T00:34:53.606Z,3.76
2017-12-16T00:36:08.218Z,3.88
2017-12-16T00:36:53.581Z,3.86
2017-12-16T00:37:53.593Z,3.78
2017-12-16T00:38:53.335Z,3.8
2017-12-16T00:39:53.600Z,3.7
2017-12-16T00:40:53.624Z,3.73
2017-12-16T00:41:53.616Z,3.73
2017-12-16T00:42:53.635Z,3.75
2017-12-16T00:43:53.706Z,3.68
2017-12-16T00:44:53.656Z,3.73
2017-12-16T00:45:53.427Z,3.7
2017-12-16T00:46:53.683Z,3.79
2017-12-16T00:47:53.744Z,3.68
2017-12-16T00:48:53.713Z,3.73
2017-12-16T00:49:53.784Z,3.69
2017-12-16T00:50:53.760Z,3.69
2017-12-16T00:52:08.467Z,3.76
2017-12-16T00:52:53.798Z,3.8
2017-12-16T00:53:53.850Z,3.79
2017-12-16T00:54:53.886Z,3.88
2017-12-16T00:55:53.868Z,3.83
2017-12-16T00:56:53.847Z,3.83
2017-12-16T00:57:53.891Z,3.83
2017-12-16T00:58:53.897Z,3.84
2017-12-16T00:59:53.920Z,3.91
2017-12-16T01:00:53.903Z,3.87
2017-12-16T01:01:53.936Z,3.88
2017-12-16T01:02:53.981Z,3.9
2017-12-16T01:03:53.967Z,3.93
2017-12-16T01:04:53.969Z,3.88
2017-12-16T01:05:53.979Z,3.86
2017-12-16T01:07:08.681Z,3.87
2017-12-16T01:07:54.032Z,3.91
2017-12-16T01:08:54.056Z,4.02
2017-12-16T01:10:08.725Z,3.87
2017-12-16T01:10:54.058Z,3.91
2017-12-16T01:11:54.078Z,3.91
2017-12-16T01:12:54.086Z,3.9
2017-12-16T01:14:54.142Z,3.83
2017-12-16T01:15:54.137Z,3.84
2017-12-16T01:16:54.227Z,3.87
2017-12-16T01:17:54.176Z,3.83
2017-12-16T01:18:54.213Z,3.83
2017-12-16T01:19:53.962Z,3.87
2017-12-16T01:20:54.215Z,3.9
2017-12-16T01:21:53.998Z,3.93
2017-12-16T01:22:54.261Z,3.9
2017-12-16T01:23:54.258Z,3.84
2017-12-16T01:25:54.293Z,3.83
2017-12-16T01:26:54.312Z,3.86
2017-12-16T01:27:54.309Z,3.7
2017-12-16T01:28:54.354Z,3.72
2017-12-16T01:29:54.390Z,3.84
2017-12-16T01:30:54.378Z,3.72
2017-12-16T01:31:54.138Z,3.69
2017-12-16T01:32:54.404Z,3.69
2017-12-16T01:33:54.430Z,3.78
2017-12-16T01:34:54.438Z,3.83
2017-12-16T01:35:54.442Z,3.79
2017-12-16T01:36:54.475Z,3.79
2017-12-16T01:37:54.479Z,3.79
2017-12-16T01:39:09.169Z,3.76
2017-12-16T01:39:54.498Z,3.78
2017-12-16T01:40:54.531Z,3.69
2017-12-16T01:41:54.520Z,3.73
2017-12-16T01:42:54.580Z,3.7
2017-12-16T01:43:54.575Z,3.69
2017-12-16T01:44:54.595Z,3.72
2017-12-16T01:45:54.603Z,3.69
2017-12-16T01:46:54.624Z,3.72
2017-12-16T01:48:54.664Z,3.75
2017-12-16T01:50:09.343Z,3.69
2017-12-16T01:50:54.665Z,3.68
2017-12-16T01:51:54.720Z,3.68
2017-12-16T01:52:54.707Z,3.7
2017-12-16T01:53:54.743Z,3.7
2017-12-16T01:55:09.421Z,3.72
2017-12-16T01:55:54.778Z,3.73
2017-12-16T01:56:54.773Z,3.72
2017-12-16T01:57:54.784Z,3.61
2017-12-16T02:00:09.491Z,3.75
2017-12-16T02:00:54.810Z,3.75
2017-12-16T02:01:54.861Z,3.75
2017-12-16T02:02:54.843Z,3.68
2017-12-16T02:04:54.912Z,3.73
2017-12-16T02:05:54.918Z,3.78
2017-12-16T02:06:54.995Z,3.7
2017-12-16T02:07:54.957Z,3.75
2017-12-16T02:08:54.945Z,3.68
2017-12-16T02:09:54.952Z,3.61
2017-12-16T02:11:09.642Z,3.75
2017-12-16T02:11:54.983Z,3.75
2017-12-16T02:12:55.013Z,3.72
2017-12-16T02:13:55.053Z,3.68
2017-12-16T02:15:09.702Z,3.7
2017-12-16T02:15:55.041Z,3.7
2017-12-16T02:16:55.150Z,3.84
2017-12-16T02:17:55.071Z,3.76
2017-12-16T02:18:55.097Z,3.73
2017-12-16T02:19:55.118Z,3.78
2017-12-16T02:20:55.130Z,3.7
2017-12-16T02:21:55.148Z,3.75
2017-12-16T02:22:55.170Z,3.75
2017-12-16T02:24:09.869Z,3.75
2017-12-16T02:25:55.190Z,3.86
2017-12-16T02:27:09.910Z,3.87
2017-12-16T02:27:55.259Z,3.8
2017-12-16T02:28:55.255Z,3.83
2017-12-16T02:29:55.267Z,3.83
2017-12-16T02:31:09.967Z,3.73
2017-12-16T02:31:55.304Z,3.84
2017-12-16T02:32:55.387Z,3.78
2017-12-16T02:33:55.338Z,3.76
2017-12-16T02:34:55.344Z,3.75
2017-12-16T02:35:55.365Z,3.87
2017-12-16T02:36:55.381Z,3.84
2017-12-16T02:37:55.395Z,3.83
2017-12-16T02:38:55.384Z,3.79
2017-12-16T02:39:55.408Z,3.86
2017-12-16T02:40:55.421Z,3.8
2017-12-16T02:42:10.124Z,3.83
2017-12-16T02:42:55.214Z,3.84
2017-12-16T02:43:55.492Z,3.76
2017-12-16T02:44:55.575Z,3.68
2017-12-16T02:45:55.536Z,3.75
2017-12-16T02:46:55.544Z,3.78
2017-12-16T02:47:55.548Z,3.7
2017-12-16T02:48:55.567Z,3.8
2017-12-16T02:49:55.581Z,3.75
2017-12-16T02:50:55.568Z,3.78
2017-12-16T02:51:55.589Z,3.73
2017-12-16T02:52:55.628Z,3.83
2017-12-16T02:53:55.668Z,3.76
2017-12-16T02:54:55.625Z,3.68
2017-12-16T02:55:55.647Z,3.72
2017-12-16T02:56:55.664Z,3.86
2017-12-16T02:57:55.699Z,3.78
2017-12-16T02:59:10.392Z,3.76
2017-12-16T02:59:55.704Z,3.87
2017-12-16T03:00:55.749Z,3.84
2017-12-16T03:01:55.784Z,3.8
2017-12-16T03:02:55.750Z,3.86
2017-12-16T03:03:55.791Z,3.79
2017-12-16T03:04:55.779Z,3.72
2017-12-16T03:05:55.570Z,3.8
2017-12-16T03:06:55.890Z,3.86
2017-12-16T03:08:10.504Z,3.79
2017-12-16T03:08:55.865Z,3.83
2017-12-16T03:09:55.885Z,3.84
2017-12-16T03:10:55.876Z,3.79
2017-12-16T03:11:55.901Z,3.86
2017-12-16T03:14:10.596Z,3.75
2017-12-16T03:15:55.981Z,3.76
2017-12-16T03:16:55.994Z,3.61
2017-12-16T03:17:56.013Z,3.6
2017-12-16T03:19:10.691Z,3.61
2017-12-16T03:19:56.076Z,3.58
2017-12-16T03:20:56.033Z,3.69
2017-12-16T03:21:56.074Z,3.66
2017-12-16T03:22:56.070Z,3.62
2017-12-16T03:23:56.073Z,3.62
2017-12-16T03:25:10.764Z,3.66
2017-12-16T03:25:56.096Z,3.61
2017-12-16T03:26:55.883Z,3.65
2017-12-16T03:27:56.140Z,3.66
2017-12-16T03:28:56.176Z,3.76
2017-12-16T03:30:10.864Z,3.73
2017-12-16T03:30:56.201Z,3.73
2017-12-16T03:31:56.192Z,3.7
2017-12-16T03:33:56.235Z,3.57
2017-12-16T03:34:56.274Z,3.57
2017-12-16T03:37:56.323Z,3.72
2017-12-16T03:38:56.342Z,3.62
2017-12-16T03:39:56.332Z,3.66
2017-12-16T03:40:56.335Z,3.61
2017-12-16T03:41:56.385Z,3.75
2017-12-16T03:42:56.353Z,3.7
2017-12-16T03:43:56.411Z,3.72
2017-12-16T03:44:56.428Z,3.61
2017-12-16T03:47:56.449Z,3.7
2017-12-16T03:48:56.480Z,3.79
2017-12-16T03:50:56.483Z,3.75
2017-12-16T03:51:56.510Z,3.72
2017-12-16T03:52:56.525Z,3.7
2017-12-16T03:53:56.548Z,3.7
2017-12-16T03:54:56.654Z,3.68
2017-12-16T03:55:56.560Z,3.75
2017-12-16T03:56:56.600Z,3.76
2017-12-16T03:57:56.583Z,3.69
2017-12-16T03:58:56.612Z,3.58
2017-12-16T03:59:56.635Z,3.57
2017-12-16T04:02:56.695Z,3.61
2017-12-16T04:03:56.436Z,3.57
2017-12-16T04:04:56.713Z,3.54
2017-12-16T04:06:11.379Z,3.58
2017-12-16T04:06:56.731Z,3.61
2017-12-16T04:07:56.745Z,3.48
2017-12-16T04:08:56.771Z,3.52
2017-12-16T04:09:56.794Z,3.43
2017-12-16T04:10:56.768Z,3.4
2017-12-16T04:11:56.801Z,3.45
2017-12-16T04:12:56.840Z,3.55
2017-12-16T04:14:56.851Z,3.6
2017-12-16T04:15:56.858Z,3.57
2017-12-16T04:17:11.548Z,3.62
2017-12-16T04:17:56.899Z,3.62
2017-12-16T04:18:56.913Z,3.69
2017-12-16T04:19:56.914Z,3.75
2017-12-16T04:20:56.929Z,3.66
2017-12-16T04:21:56.946Z,3.61
2017-12-16T04:23:11.633Z,3.61
2017-12-16T04:23:56.740Z,3.61
2017-12-16T04:24:56.996Z,3.61
2017-12-16T04:25:57.022Z,3.6
2017-12-16T04:26:57.025Z,3.73
2017-12-16T04:27:57.051Z,3.76
2017-12-16T04:28:57.044Z,3.83
2017-12-16T04:29:57.092Z,3.72
2017-12-16T04:30:57.075Z,3.78
2017-12-16T04:31:57.133Z,3.72
2017-12-16T04:32:57.114Z,3.7
2017-12-16T04:33:57.112Z,3.8
2017-12-16T04:34:57.178Z,3.86
2017-12-16T04:35:57.177Z,3.78
2017-12-16T04:36:57.208Z,3.83
2017-12-16T04:38:11.873Z,3.76
2017-12-16T04:38:56.960Z,3.9
2017-12-16T04:39:57.223Z,3.83
2017-12-16T04:40:57.272Z,3.87
2017-12-16T04:41:57.259Z,3.79
2017-12-16T04:42:57.281Z,3.83
2017-12-16T04:43:57.298Z,3.9
2017-12-16T04:45:11.993Z,3.91
2017-12-16T04:45:57.323Z,3.91
2017-12-16T04:46:57.375Z,3.94
2017-12-16T04:47:57.350Z,3.97
2017-12-16T04:49:12.022Z,4
2017-12-16T04:49:57.367Z,3.98
2017-12-16T04:50:57.396Z,3.97
2017-12-16T04:51:57.491Z,3.97
2017-12-16T04:52:57.406Z,3.98
2017-12-16T04:53:57.455Z,4.02
2017-12-16T04:54:57.434Z,3.87
2017-12-16T04:55:57.468Z,3.91
2017-12-16T04:57:12.149Z,3.9
2017-12-16T04:57:57.476Z,3.88
2017-12-16T04:59:57.263Z,3.84
2017-12-16T05:00:57.549Z,3.79
2017-12-16T05:01:57.579Z,3.86
2017-12-16T05:02:57.581Z,3.9
2017-12-16T05:03:57.615Z,3.93
2017-12-16T05:05:12.016Z,3.87
2017-12-16T05:05:57.620Z,3.91
2017-12-16T05:06:57.638Z,3.91
2017-12-16T05:07:57.626Z,4
2017-12-16T05:08:57.672Z,4.02
2017-12-16T05:09:57.676Z,3.98
2017-12-16T05:11:12.372Z,4.02
2017-12-16T05:11:57.699Z,3.98
2017-12-16T05:12:57.463Z,4
2017-12-16T05:13:57.748Z,4.05
2017-12-16T05:14:57.760Z,4
2017-12-16T05:15:57.794Z,3.97
2017-12-16T05:16:57.776Z,3.94
2017-12-16T05:17:57.804Z,4
2017-12-16T05:19:12.476Z,4.04
2017-12-16T05:19:57.808Z,4
2017-12-16T05:21:12.524Z,4
2017-12-16T05:21:57.843Z,4
2017-12-16T05:22:57.881Z,4.05
2017-12-16T05:23:57.894Z,4.02
2017-12-16T05:24:57.906Z,4.08
2017-12-16T05:25:57.925Z,4.11
2017-12-16T05:26:57.962Z,4.09
2017-12-16T05:27:57.930Z,4.15
2017-12-16T05:28:57.969Z,4.11
2017-12-16T05:29:57.971Z,4.16
2017-12-16T05:30:57.996Z,4.18
2017-12-16T05:31:58.016Z,4.04
2017-12-16T05:32:58.020Z,4.02
2017-12-16T05:33:58.057Z,4.05
2017-12-16T05:34:58.062Z,4
2017-12-16T05:36:12.730Z,3.97
2017-12-16T05:37:12.744Z,4.05
2017-12-16T05:37:58.087Z,4
2017-12-16T05:38:58.145Z,3.98
2017-12-16T05:39:58.109Z,3.88
2017-12-16T05:40:58.158Z,4
2017-12-16T05:41:58.143Z,4.05
2017-12-16T05:43:12.838Z,4.09
2017-12-16T05:43:58.208Z,3.98
2017-12-16T05:44:58.210Z,4.05
2017-12-16T05:45:57.720Z,4.06
2017-12-16T05:46:58.262Z,4.05
2017-12-16T05:47:58.229Z,4.05
2017-12-16T05:48:58.294Z,4.2
2017-12-16T05:50:12.944Z,4.09
2017-12-16T05:50:58.060Z,4.23
2017-12-16T05:52:12.732Z,4.23
2017-12-16T05:53:58.111Z,4.08
2017-12-16T05:54:58.351Z,4.18
2017-12-16T05:55:58.378Z,4.22
2017-12-16T05:56:58.128Z,4.22
2017-12-16T05:57:58.388Z,4.24
2017-12-16T05:59:13.075Z,4.26
2017-12-16T05:59:58.460Z,4.22
2017-12-16T06:00:58.448Z,4.18
2017-12-16T06:01:58.454Z,4.22
2017-12-16T06:02:58.478Z,4.22
2017-12-16T06:03:58.502Z,4.11
2017-12-16T06:04:58.497Z,4.12
2017-12-16T06:05:58.524Z,4.16
2017-12-16T06:06:58.548Z,4.27
2017-12-16T06:07:58.540Z,4.2
2017-12-16T06:08:58.574Z,4.22
2017-12-16T06:09:58.572Z,4.15
2017-12-16T06:10:58.580Z,4.18
2017-12-16T06:11:58.703Z,4.11
2017-12-16T06:12:58.632Z,4.15
2017-12-16T06:13:58.647Z,4.16
2017-12-16T06:14:58.669Z,4.12
2017-12-16T06:15:58.695Z,4.05
2017-12-16T06:16:58.704Z,4.06
2017-12-16T06:17:58.707Z,4.08
2017-12-16T06:18:58.707Z,4.16
2017-12-16T06:19:58.770Z,4.22
2017-12-16T06:20:58.772Z,4.15
2017-12-16T06:21:58.784Z,4.16
2017-12-16T06:22:58.761Z,4.26
2017-12-16T06:24:13.470Z,4.23
2017-12-16T06:24:58.836Z,4.22
2017-12-16T06:25:58.838Z,4.29
2017-12-16T06:26:58.854Z,4.22
2017-12-16T06:27:58.873Z,4.27
2017-12-16T06:29:58.902Z,4.16
2017-12-16T06:30:58.908Z,4.11
2017-12-16T06:31:58.922Z,4.05
2017-12-16T06:32:58.920Z,4.06
2017-12-16T06:33:58.967Z,4.14
2017-12-16T06:34:58.955Z,4.09
2017-12-16T06:35:59.002Z,4.09
2017-12-16T06:36:58.972Z,4
2017-12-16T06:37:59.012Z,4.06
2017-12-16T06:40:13.728Z,4.05
2017-12-16T06:40:59.073Z,4.05
2017-12-16T06:41:59.075Z,4.05
2017-12-16T06:42:58.845Z,4.06
2017-12-16T06:43:59.117Z,4.02
2017-12-16T06:44:59.131Z,4.09
2017-12-16T06:45:59.116Z,4.04
2017-12-16T06:46:59.150Z,4.02
2017-12-16T06:47:59.181Z,4
2017-12-16T06:48:59.157Z,4
2017-12-16T06:49:59.204Z,4.04
2017-12-16T06:50:59.223Z,4.06
2017-12-16T06:51:59.246Z,4.04
2017-12-16T06:52:59.235Z,4.08
2017-12-16T06:53:59.260Z,4.05
2017-12-16T06:54:59.276Z,4
2017-12-16T06:56:13.693Z,3.98
2017-12-16T06:56:59.323Z,4.04
2017-12-16T06:57:59.306Z,3.98
2017-12-16T06:58:59.308Z,4.02
2017-12-16T06:59:59.105Z,4
2017-12-16T07:00:59.111Z,3.93
2017-12-16T07:02:14.047Z,4
2017-12-16T07:02:59.363Z,3.88
2017-12-16T07:03:59.402Z,4
2017-12-16T07:04:59.399Z,4.08
2017-12-16T07:06:59.423Z,4
2017-12-16T07:07:59.462Z,4
2017-12-16T07:08:59.468Z,4.05
2017-12-16T07:09:59.485Z,4.04
2017-12-16T07:10:58.997Z,4.06
2017-12-16T07:12:14.203Z,4.06
2017-12-16T07:12:59.547Z,4.05
2017-12-16T07:14:14.227Z,4.04
2017-12-16T07:14:59.558Z,4.02
2017-12-16T07:15:59.314Z,4.09
2017-12-16T07:16:59.623Z,3.98
2017-12-16T07:17:59.585Z,3.98
2017-12-16T07:18:59.614Z,4
2017-12-16T07:20:14.317Z,4.04
2017-12-16T07:20:59.654Z,4.06
2017-12-16T07:21:59.707Z,3.96
2017-12-16T07:22:59.714Z,3.97
2017-12-16T07:23:59.451Z,3.96
2017-12-16T07:25:14.371Z,3.94
2017-12-16T07:25:59.728Z,3.93
2017-12-16T07:27:14.437Z,4.06
2017-12-16T07:27:59.776Z,3.98
2017-12-16T07:28:59.793Z,4.04
2017-12-16T07:29:59.817Z,4.02
2017-12-16T07:30:59.803Z,4.02
2017-12-16T07:31:59.830Z,4.05
2017-12-16T07:32:59.843Z,3.97
2017-12-16T07:33:59.857Z,4.02
2017-12-16T07:34:59.867Z,4.02
2017-12-16T07:35:59.880Z,4.04
2017-12-16T07:36:59.884Z,4.08
2017-12-16T07:38:59.939Z,4.11
2017-12-16T07:39:59.939Z,4.05
2017-12-16T07:40:59.738Z,4.09
2017-12-16T07:41:59.979Z,4.02
2017-12-16T07:42:59.994Z,4.06
2017-12-16T07:44:00.012Z,4.02
2017-12-16T07:45:00.035Z,4.09
2017-12-16T07:46:00.059Z,4.11
2017-12-16T07:47:00.054Z,4.02
2017-12-16T07:48:00.068Z,4.05
2017-12-16T07:49:00.096Z,4.02
2017-12-16T07:50:00.103Z,4.05
2017-12-16T07:51:00.119Z,4.09
2017-12-16T07:52:00.126Z,4.16
2017-12-16T07:53:00.147Z,4.15
2017-12-16T07:54:00.261Z,4.14
2017-12-16T07:54:59.919Z,4.11
2017-12-16T07:56:00.195Z,3.97
2017-12-16T07:58:00.223Z,4.16
2017-12-16T07:59:14.901Z,4.09
2017-12-16T08:00:00.266Z,4.18
2017-12-16T08:01:00.247Z,4.23
2017-12-16T08:02:00.296Z,4.27
2017-12-16T08:03:00.324Z,4.3
2017-12-16T08:04:00.304Z,4.3
2017-12-16T08:05:00.300Z,4.27
2017-12-16T08:06:00.368Z,4.42
2017-12-16T08:07:00.110Z,4.32
2017-12-16T08:08:15.052Z,4.44
2017-12-16T08:09:00.406Z,4.34
2017-12-16T08:10:00.428Z,4.27
2017-12-16T08:11:00.423Z,4.4
2017-12-16T08:12:00.439Z,4.27
2017-12-16T08:13:15.101Z,4.2
2017-12-16T08:14:00.454Z,4.18
2017-12-16T08:16:00.498Z,4.33
2017-12-16T08:17:00.529Z,4.24
2017-12-16T08:18:00.528Z,4.16
2017-12-16T08:19:00.561Z,4.14
2017-12-16T08:20:15.230Z,4.18
2017-12-16T08:21:00.585Z,4.14
2017-12-16T08:22:00.575Z,4.11
2017-12-16T08:23:00.605Z,4
2017-12-16T08:24:00.595Z,4.05
2017-12-16T08:25:00.647Z,4.05
2017-12-16T08:26:00.675Z,4.08
2017-12-16T08:27:00.657Z,4
2017-12-16T08:28:00.695Z,4.18
2017-12-16T08:29:00.716Z,4.18
2017-12-16T08:30:00.730Z,4.2
2017-12-16T08:31:15.404Z,4.26
2017-12-16T08:32:00.731Z,4.22
2017-12-16T08:33:15.440Z,4.29
2017-12-16T08:34:00.504Z,4.36
2017-12-16T08:35:00.802Z,4.5
2017-12-16T08:36:00.825Z,4.47
2017-12-16T08:37:00.824Z,4.59
2017-12-16T08:38:15.496Z,4.62
2017-12-16T08:39:00.861Z,4.63
2017-12-16T08:40:00.869Z,4.65
2017-12-16T08:41:00.907Z,4.63
2017-12-16T08:42:00.916Z,4.66
2017-12-16T08:43:00.657Z,4.73
2017-12-16T08:44:00.954Z,4.75
2017-12-16T08:45:00.960Z,4.7
2017-12-16T08:46:00.987Z,4.73
2017-12-16T08:49:00.996Z,4.77
2017-12-16T08:50:00.875Z,4.78
2017-12-16T08:52:01.079Z,4.96
2017-12-16T08:53:01.048Z,4.92
2017-12-16T08:54:01.095Z,4.86
2017-12-16T08:55:01.112Z,4.88
2017-12-16T08:56:01.127Z,4.96
2017-12-16T08:57:01.142Z,4.85
2017-12-16T08:58:01.128Z,4.89
2017-12-16T08:59:01.171Z,4.96
2017-12-16T09:00:01.171Z,4.97
2017-12-16T09:01:01.200Z,5.09
2017-12-16T09:02:15.867Z,4.96
2017-12-16T09:03:01.253Z,4.97
2017-12-16T09:04:15.924Z,4.97
2017-12-16T09:06:01.037Z,5
2017-12-16T09:07:01.290Z,4.94
2017-12-16T09:08:01.331Z,4.96
2017-12-16T09:09:01.350Z,5.07
2017-12-16T09:10:01.367Z,4.92
2017-12-16T09:11:01.116Z,5.06
2017-12-16T09:12:01.382Z,5.03
2017-12-16T09:13:01.395Z,5
2017-12-16T09:14:01.432Z,5.03
2017-12-16T09:15:01.473Z,4.99
2017-12-16T09:16:01.437Z,4.86
2017-12-16T09:17:01.541Z,4.86
2017-12-16T09:18:01.450Z,4.86
2017-12-16T09:19:01.502Z,4.88
2017-12-16T09:20:01.243Z,4.85
2017-12-16T09:21:01.255Z,4.8
2017-12-16T09:22:01.529Z,4.72
2017-12-16T09:23:16.204Z,4.77
2017-12-16T09:24:01.579Z,4.75
2017-12-16T09:25:01.582Z,4.73
2017-12-16T09:26:01.594Z,4.84
2017-12-16T09:27:01.623Z,4.8
2017-12-16T09:28:01.346Z,4.99
2017-12-16T09:29:01.647Z,5.1
2017-12-16T09:30:01.136Z,5.21
2017-12-16T09:31:01.674Z,5.24
2017-12-16T09:32:01.682Z,5.2
2017-12-16T09:33:01.683Z,5.27
2017-12-16T09:34:16.374Z,5.33
2017-12-16T09:35:01.745Z,5.3
2017-12-16T09:36:01.730Z,5.42
2017-12-16T09:37:01.775Z,5.45
2017-12-16T09:38:01.798Z,5.39
2017-12-16T09:39:01.782Z,5.36
2017-12-16T09:40:01.802Z,5.53
2017-12-16T09:41:01.808Z,5.53
2017-12-16T09:42:01.867Z,5.58
2017-12-16T09:43:01.842Z,5.54
2017-12-16T09:44:01.895Z,5.51
2017-12-16T09:45:01.888Z,5.51
2017-12-16T09:46:01.927Z,5.54
2017-12-16T09:47:16.577Z,5.58
2017-12-16T09:48:01.947Z,5.65
2017-12-16T09:49:01.951Z,5.61
2017-12-16T09:50:16.657Z,5.58
2017-12-16T09:51:01.730Z,5.48
2017-12-16T09:52:02.020Z,5.4
2017-12-16T09:54:02.075Z,5.46
2017-12-16T09:55:02.034Z,5.36
2017-12-16T09:56:01.808Z,5.48
2017-12-16T09:57:02.117Z,5.49
2017-12-16T09:58:16.762Z,5.39
2017-12-16T10:00:02.188Z,5.45
2017-12-16T10:01:02.151Z,5.43
2017-12-16T10:02:01.891Z,5.51
2017-12-16T10:03:16.598Z,5.45
2017-12-16T10:04:01.957Z,5.57
2017-12-16T10:05:16.899Z,5.49
2017-12-16T10:06:16.882Z,5.31
2017-12-16T10:07:02.227Z,5.42
2017-12-16T10:08:02.262Z,5.43
2017-12-16T10:09:02.298Z,5.45
2017-12-16T10:10:02.318Z,5.36
2017-12-16T10:11:16.974Z,5.39
2017-12-16T10:12:02.336Z,5.28
2017-12-16T10:13:02.093Z,5.28
2017-12-16T10:14:02.350Z,5.33
2017-12-16T10:15:02.379Z,5.35
2017-12-16T10:16:02.393Z,5.33
2017-12-16T10:17:02.169Z,5.27
2017-12-16T10:18:02.424Z,5.22
2017-12-16T10:19:02.435Z,5.24
2017-12-16T10:21:02.470Z,5.21
2017-12-16T10:22:17.170Z,5.21
2017-12-16T10:23:02.269Z,5.12
2017-12-16T10:24:02.252Z,5.13
2017-12-16T10:25:02.275Z,5.12
2017-12-16T10:26:02.282Z,5.22
2017-12-16T10:27:02.574Z,5.15
2017-12-16T10:28:02.562Z,5.22
2017-12-16T10:29:17.010Z,5.12
2017-12-16T10:30:02.643Z,5.21
2017-12-16T10:31:02.615Z,5.15
2017-12-16T10:33:02.664Z,5.13
2017-12-16T10:34:02.687Z,5.07
2017-12-16T10:35:02.694Z,5.18
2017-12-16T10:36:02.733Z,5.18
2017-12-16T10:37:17.402Z,5.13
2017-12-16T10:38:02.751Z,5.1
2017-12-16T10:39:02.753Z,5.15
2017-12-16T10:40:02.772Z,5.07
2017-12-16T10:41:02.793Z,5.07
2017-12-16T10:42:02.806Z,5.1
2017-12-16T10:43:02.837Z,5.1
2017-12-16T10:44:17.245Z,4.94
2017-12-16T10:45:02.858Z,5.06
2017-12-16T10:46:02.867Z,5.09
2017-12-16T10:47:02.892Z,5.04
2017-12-16T10:48:02.884Z,4.99
2017-12-16T10:49:02.937Z,4.96
2017-12-16T10:50:02.691Z,5
2017-12-16T10:51:02.946Z,4.97
2017-12-16T10:52:02.986Z,4.91
2017-12-16T10:53:02.979Z,4.97
2017-12-16T10:54:02.980Z,4.84
2017-12-16T10:55:03.167Z,4.84
2017-12-16T10:56:03.028Z,4.85
2017-12-16T10:57:03.038Z,4.82
2017-12-16T10:58:02.788Z,4.84
2017-12-16T10:59:02.805Z,4.73
2017-12-16T11:00:17.812Z,4.88
2017-12-16T11:01:02.870Z,4.77
2017-12-16T11:02:03.117Z,4.88
2017-12-16T11:03:03.119Z,4.73
2017-12-16T11:04:02.900Z,4.75
2017-12-16T11:05:03.162Z,4.84
2017-12-16T11:06:17.831Z,4.7
2017-12-16T11:07:03.221Z,4.72
2017-12-16T11:08:03.214Z,4.72
2017-12-16T11:09:17.897Z,4.6
2017-12-16T11:10:02.995Z,4.75
2017-12-16T11:11:03.263Z,4.8
2017-12-16T11:13:03.298Z,4.73
2017-12-16T11:14:03.303Z,4.73
2017-12-16T11:15:03.081Z,4.72
2017-12-16T11:16:03.312Z,4.63
2017-12-16T11:18:03.344Z,4.67
2017-12-16T11:19:03.378Z,4.7
2017-12-16T11:20:03.384Z,4.66
2017-12-16T11:21:03.412Z,4.55
2017-12-16T11:22:03.450Z,4.58
2017-12-16T11:23:03.433Z,4.44
2017-12-16T11:24:03.453Z,4.41
2017-12-16T11:25:18.136Z,4.59
2017-12-16T11:26:03.502Z,4.63
2017-12-16T11:27:03.513Z,4.69
2017-12-16T11:28:03.502Z,4.63
2017-12-16T11:29:03.539Z,4.67
2017-12-16T11:30:03.568Z,4.73
2017-12-16T11:31:03.585Z,4.75
2017-12-16T11:32:03.596Z,4.66
2017-12-16T11:33:03.614Z,4.7
2017-12-16T11:34:03.606Z,4.75
2017-12-16T11:35:03.633Z,4.67
2017-12-16T11:36:03.638Z,4.69
2017-12-16T11:37:03.655Z,4.66
2017-12-16T11:38:03.688Z,4.62
2017-12-16T11:39:03.676Z,4.66
2017-12-16T11:40:03.707Z,4.62
2017-12-16T11:41:18.396Z,4.7
2017-12-16T11:43:03.828Z,4.7
2017-12-16T11:44:03.791Z,4.58
2017-12-16T11:45:03.791Z,4.51
2017-12-16T11:46:03.811Z,4.41
2017-12-16T11:47:03.831Z,4.4
2017-12-16T11:49:03.822Z,4.51
2017-12-16T11:50:03.882Z,4.51
2017-12-16T11:51:03.867Z,4.41
2017-12-16T11:52:03.621Z,4.51
2017-12-16T11:55:03.933Z,4.67
2017-12-16T11:56:03.945Z,4.67
2017-12-16T11:57:18.647Z,4.67
2017-12-16T11:59:04.024Z,4.63
2017-12-16T12:00:03.510Z,4.72
2017-12-16T12:01:04.009Z,4.72
2017-12-16T12:02:04.021Z,4.59
2017-12-16T12:03:04.053Z,4.48
2017-12-16T12:04:04.078Z,4.54
2017-12-16T12:05:18.501Z,4.66
2017-12-16T12:06:04.141Z,4.7
2017-12-16T12:07:04.132Z,4.67
2017-12-16T12:08:04.139Z,4.62
2017-12-16T12:09:04.156Z,4.51
2017-12-16T12:11:04.181Z,4.58
2017-12-16T12:12:18.874Z,4.69
2017-12-16T12:13:04.220Z,4.58
2017-12-16T12:14:18.902Z,4.62
2017-12-16T12:15:04.239Z,4.65
2017-12-16T12:16:03.998Z,4.44
2017-12-16T12:17:04.261Z,4.52
2017-12-16T12:18:04.296Z,4.44
2017-12-16T12:19:04.048Z,4.51
2017-12-16T12:20:04.068Z,4.52
2017-12-16T12:21:04.090Z,4.45
2017-12-16T12:22:04.341Z,4.55
2017-12-16T12:23:04.366Z,4.45
2017-12-16T12:24:04.115Z,4.42
2017-12-16T12:25:04.387Z,4.62
2017-12-16T12:26:04.416Z,4.62
2017-12-16T12:27:04.429Z,4.67
2017-12-16T12:28:04.183Z,4.63
2017-12-16T12:29:04.455Z,4.69
2017-12-16T12:30:04.474Z,4.7
2017-12-16T12:31:04.490Z,4.69
2017-12-16T12:32:19.182Z,4.66
2017-12-16T12:33:04.504Z,4.67
2017-12-16T12:34:04.527Z,4.73
2017-12-16T12:36:04.566Z,4.72
2017-12-16T12:37:19.233Z,4.67
2017-12-16T12:38:04.613Z,4.72
2017-12-16T12:39:04.598Z,4.77
2017-12-16T12:40:04.366Z,4.84
2017-12-16T12:41:04.625Z,4.78
2017-12-16T12:42:04.672Z,4.77
2017-12-16T12:43:04.654Z,4.78
2017-12-16T12:44:19.362Z,4.77
2017-12-16T12:45:04.689Z,4.85
2017-12-16T12:46:04.712Z,4.88
2017-12-16T12:47:19.418Z,4.94
2017-12-16T12:48:04.780Z,4.88
2017-12-16T12:49:04.760Z,4.84
2017-12-16T12:50:04.523Z,4.72
2017-12-16T12:51:04.795Z,4.75
2017-12-16T12:52:04.814Z,4.66
2017-12-16T12:53:04.576Z,4.69
2017-12-16T12:54:04.665Z,4.73
2017-12-16T12:55:04.841Z,4.75
2017-12-16T12:56:04.853Z,4.89
2017-12-16T12:57:04.871Z,4.75
2017-12-16T12:58:04.924Z,4.8
2017-12-16T12:59:04.920Z,4.84
2017-12-16T13:01:04.961Z,4.88
2017-12-16T13:02:19.641Z,4.73
2017-12-16T13:03:04.999Z,4.82
2017-12-16T13:04:04.972Z,4.77
2017-12-16T13:05:05.020Z,4.67
2017-12-16T13:06:05.036Z,4.65
2017-12-16T13:07:05.044Z,4.69
2017-12-16T13:08:05.082Z,4.67
2017-12-16T13:09:05.074Z,4.66
2017-12-16T13:10:05.093Z,4.69
2017-12-16T13:11:05.119Z,4.69
2017-12-16T13:12:19.781Z,4.69
2017-12-16T13:14:05.168Z,4.69
2017-12-16T13:15:04.896Z,4.69
2017-12-16T13:16:19.832Z,4.63
2017-12-16T13:17:05.194Z,4.73
2017-12-16T13:18:05.214Z,4.59
2017-12-16T13:19:05.235Z,4.63
2017-12-16T13:20:05.010Z,4.7
2017-12-16T13:21:05.255Z,4.66
2017-12-16T13:22:19.957Z,4.77
2017-12-16T13:23:05.055Z,4.7
2017-12-16T13:24:05.329Z,4.7
2017-12-16T13:25:05.302Z,4.62
2017-12-16T13:26:19.992Z,4.66
2017-12-16T13:27:05.351Z,4.67
2017-12-16T13:28:05.112Z,4.67
2017-12-16T13:29:05.381Z,4.69
2017-12-16T13:30:05.150Z,4.66
2017-12-16T13:31:05.392Z,4.6
2017-12-16T13:32:20.108Z,4.59
2017-12-16T13:33:05.450Z,4.51
2017-12-16T13:34:05.223Z,4.6
2017-12-16T13:35:05.215Z,4.47
2017-12-16T13:36:05.473Z,4.45
2017-12-16T13:37:05.491Z,4.45
2017-12-16T13:38:05.541Z,4.36
2017-12-16T13:39:05.354Z,4.36
2017-12-16T13:40:05.273Z,4.48
2017-12-16T13:41:05.325Z,4.41
2017-12-16T13:43:05.644Z,4.63
2017-12-16T13:44:05.347Z,4.58
2017-12-16T13:45:05.640Z,4.69
2017-12-16T13:46:05.625Z,4.65
2017-12-16T13:47:20.315Z,4.67
2017-12-16T13:48:05.441Z,4.67
2017-12-16T13:49:05.535Z,4.66
2017-12-16T13:50:05.186Z,4.58
2017-12-16T13:51:05.749Z,4.62
2017-12-16T13:52:05.763Z,4.59
2017-12-16T13:53:05.486Z,4.55
2017-12-16T13:54:05.771Z,4.55
2017-12-16T13:55:05.537Z,4.59
2017-12-16T13:56:05.783Z,4.62
2017-12-16T13:57:05.843Z,4.65
2017-12-16T13:58:05.830Z,4.63
2017-12-16T13:59:05.582Z,4.66
2017-12-16T14:00:05.610Z,4.63
2017-12-16T14:01:05.878Z,4.63
2017-12-16T14:02:05.647Z,4.63
2017-12-16T14:03:05.886Z,4.63
2017-12-16T14:04:05.920Z,4.63
2017-12-16T14:05:05.941Z,4.6
2017-12-16T14:07:05.977Z,4.51
2017-12-16T14:08:05.961Z,4.41
2017-12-16T14:09:06.009Z,4.44
2017-12-16T14:10:20.670Z,4.42
2017-12-16T14:11:06.041Z,4.42